COOK1: Arkansas River Nr Coolidge, KS

                                SHEF ID:       COOK1     ARKANSAS R NR COOLIDGE, KS
STATION TYPE:
Regulating: Stage = 8.00, Flow = 2041

PRECIP STAGE STAGE(2) RIV-FLOW WTR-TEMP CONDUCT BAT-LOAD
in ft ft cfs F umho/cm volt
Ccp-Rev Ccp-Rev Ccp-Rev Ccp-Rev Ccp-Rev Ccp-Rev Ccp-Rev
(America/Chicago)
08/18 00:00 0.00 2.77 2.78 74 77.50 5990 12.95
08/18 01:00 0.00 2.76 2.74 73 76.44 5978 12.95
08/18 02:00 0.00 2.75 2.73 72 75.31 5958 12.89
08/18 03:00 0.00 2.76 2.79 73 74.28 5962 12.89
08/18 04:00 0.00 2.75 2.77 72 73.29 5983 12.89
08/18 05:00 0.00 2.75 2.76 72 72.37 6010 12.89
08/18 06:00 0.00 2.76 2.79 73 71.55 6037 12.83
08/18 07:00 0.00 2.77 2.78 74 70.63 6035 12.83
08/18 08:00 0.00 2.76 2.78 73 69.89 6017 12.83
08/18 09:00 0.00 2.76 2.77 73 69.93 6008 12.89
08/18 10:00 0.00 2.75 2.76 72 70.92 6012 13.24
08/18 11:00 0.00 2.75 2.78 72 72.77 6021 13.71
08/18 12:00 0.00 2.74 2.78 71 75.16 6034 13.77
08/18 13:00 0.00 2.74 2.78 71 77.95 6046 13.77
08/18 14:00 0.00 2.74 2.77 71 80.55 6068 13.83
08/18 15:00 0.00 2.74 2.78 71 82.74 6082 13.83
08/18 16:00 0.00 2.74 2.79 71 84.27 6089 13.83
08/18 17:00 0.00 2.72 2.75 69 85.01 6088 13.53
08/18 18:00 0.00 2.73 2.76 70 84.78 6086 13.36
08/18 19:00 0.00 2.73 2.76 70 83.30 6080 13.18
08/18 20:00 0.00 2.73 2.75 70 82.38 6071 13.12
08/18 21:00 0.00 2.72 2.74 69 81.05 6070 13.07
08/18 22:00 0.00 2.72 2.75 69 79.50 6066 13.00
08/18 23:00 ---- ---- ---- ---- ---- ---- ----
Data processed at Mon 19Aug2024 04:30 GMT

Parsing this webpage?

Checkout our new Data API! CWMSDataAPI (CDA)

Timeseries IDs (TSIDs)

TSIDs used from left to right in the data table
COOL.Precip-Inc.Total.1Hour.1Hour.Ccp-Rev
COOL.Stage.Inst.1Hour.0.Ccp-Rev
COOL.Stage-Alt.Inst.1Hour.0.Ccp-Rev
COOL.Flow.Inst.1Hour.0.Ccp-Rev
COOL.Temp-Water.Inst.1Hour.0.Ccp-Rev
COOL.Cond.Inst.1Hour.0.Ccp-Rev
COOL.Volt-Battery Load.Inst.1Hour.0.Ccp-Rev

                            

All information presented herein is the property of the government of the United States of America and may be revised or deleted at any time without prior notice. Dissemination of this information without the expressed written consent of the Public Affairs Office, Tulsa District U.S. Army Corps of Engineers is strictly prohibited. These data are gathered electronically and, as presented, have NOT undergone any form of quality control. These data are NOT guaranteed to be valid or correct.